Time;durP1;ratioP1;P1;durP2;ratioP2;P2;SDS_P1;SDS_P2;PMS_P1;PMS_P2;Temp;Humidity;BMP_temperature;BMP_pressure;BME280_temperature;BME280_humidity;BME280_pressure;Samples;Min_cycle;Max_cycle;Signal;HPM_P1;HPM_P2
2022/06/25 00:01:29;;;;;;;3.23;2.20;;;;;;;;;;5038834;28;20202;-65
2022/06/25 00:03:55;;;;;;;5.23;2.57;;;;;;;;;;5056923;28;20175;-65
2022/06/25 00:06:21;;;;;;;5.57;2.60;;;;;;;;;;5056463;28;20252;-66
2022/06/25 00:08:48;;;;;;;5.10;2.87;;;;;;;;;;5056811;28;20179;-64
2022/06/25 00:13:59;;;;;;;4.37;2.90;;;;;;;;;;5056704;28;20250;-67
2022/06/25 00:16:25;;;;;;;4.20;3.10;;;;;;;;;;5056452;28;20608;-64
2022/06/25 00:18:51;;;;;;;8.43;3.40;;;;;;;;;;5056650;28;20182;-65
2022/06/25 00:21:16;;;;;;;7.40;3.07;;;;;;;;;;5056007;28;20267;-66
2022/06/25 00:23:42;;;;;;;6.83;3.20;;;;;;;;;;5038211;28;20186;-68
2022/06/25 00:26:08;;;;;;;4.20;3.30;;;;;;;;;;5055722;28;20178;-66
2022/06/25 00:28:34;;;;;;;3.90;3.20;;;;;;;;;;5056227;28;20228;-67
2022/06/25 00:31:00;;;;;;;4.97;3.40;;;;;;;;;;5038047;28;20214;-68
2022/06/25 00:33:26;;;;;;;6.73;3.53;;;;;;;;;;5038411;28;20174;-67
2022/06/25 00:35:52;;;;;;;4.70;3.40;;;;;;;;;;5056302;28;20257;-67
2022/06/25 00:38:18;;;;;;;7.17;3.50;;;;;;;;;;5055954;28;20652;-66
2022/06/25 00:40:44;;;;;;;4.80;3.40;;;;;;;;;;5055985;28;20597;-67
2022/06/25 00:43:10;;;;;;;5.20;3.40;;;;;;;;;;5055805;28;20182;-68
2022/06/25 00:45:36;;;;;;;8.43;3.60;;;;;;;;;;5055540;28;20228;-66
2022/06/25 00:48:02;;;;;;;4.87;3.30;;;;;;;;;;5055697;28;20182;-67
2022/06/25 00:50:28;;;;;;;8.70;4.20;;;;;;;;;;5037533;28;20316;-69
2022/06/25 00:52:57;;;;;;;4.47;3.40;;;;;;;;;;5055813;28;20181;-67
2022/06/25 00:55:26;;;;;;;4.77;3.63;;;;;;;;;;5055731;28;20558;-68
2022/06/25 00:57:52;;;;;;;4.93;3.85;;;;;;;;;;5054782;28;20382;-67
2022/06/25 01:00:18;;;;;;;7.88;4.18;;;;;;;;;;5053989;28;20381;-67
2022/06/25 01:02:44;;;;;;;5.50;3.63;;;;;;;;;;5054015;28;20443;-67
2022/06/25 01:05:12;;;;;;;7.28;3.80;;;;;;;;;;5036102;28;20727;-69
2022/06/25 01:07:38;;;;;;;4.78;3.70;;;;;;;;;;5053998;28;20850;-68
2022/06/25 01:10:08;;;;;;;5.32;4.03;;;;;;;;;;5035907;28;20918;-66
2022/06/25 01:12:35;;;;;;;4.70;3.70;;;;;;;;;;5054367;28;20869;-67
2022/06/25 01:15:08;;;;;;;6.95;4.38;;;;;;;;;;5053879;28;20872;-67
2022/06/25 01:17:36;;;;;;;8.37;4.10;;;;;;;;;;5055397;28;20201;-67
2022/06/25 01:20:04;;;;;;;5.17;3.20;;;;;;;;;;5036998;28;20186;-67
2022/06/25 01:22:30;;;;;;;9.20;3.50;;;;;;;;;;5055037;28;20206;-67
2022/06/25 01:24:56;;;;;;;9.13;3.33;;;;;;;;;;5055195;28;20174;-67
2022/06/25 01:27:22;;;;;;;4.83;3.13;;;;;;;;;;5055112;28;20209;-68
2022/06/25 01:29:48;;;;;;;4.23;3.10;;;;;;;;;;5055125;28;20813;-68
2022/06/25 01:32:14;;;;;;;6.43;2.97;;;;;;;;;;5054680;28;20244;-67
2022/06/25 01:34:40;;;;;;;5.47;2.90;;;;;;;;;;5054485;28;20182;-67
2022/06/25 01:37:06;;;;;;;2.93;2.50;;;;;;;;;;5054390;28;20509;-66
2022/06/25 01:39:32;;;;;;;4.73;2.57;;;;;;;;;;5055108;28;20591;-67
2022/06/25 01:41:58;;;;;;;7.00;2.60;;;;;;;;;;5054405;28;20194;-67
2022/06/25 01:44:24;;;;;;;4.63;2.67;;;;;;;;;;5036288;28;20179;-67
2022/06/25 01:46:50;;;;;;;4.87;3.10;;;;;;;;;;5054346;28;20179;-67
2022/06/25 01:49:16;;;;;;;3.93;2.40;;;;;;;;;;5054341;28;20198;-67
2022/06/25 01:51:42;;;;;;;3.33;2.57;;;;;;;;;;5054311;28;20618;-67
2022/06/25 01:54:08;;;;;;;3.73;2.90;;;;;;;;;;5054517;28;20186;-67
2022/06/25 01:56:34;;;;;;;4.53;3.17;;;;;;;;;;5054515;28;20257;-67
2022/06/25 01:59:00;;;;;;;4.07;2.87;;;;;;;;;;5054340;28;20171;-67
2022/06/25 02:01:26;;;;;;;4.53;2.70;;;;;;;;;;5036248;28;20554;-67
2022/06/25 02:03:52;;;;;;;3.60;2.70;;;;;;;;;;5036372;28;20178;-67
2022/06/25 02:06:18;;;;;;;6.63;3.40;;;;;;;;;;5055487;28;20178;-67
2022/06/25 02:08:44;;;;;;;4.40;3.40;;;;;;;;;;5036638;28;20281;-66
2022/06/25 02:11:10;;;;;;;5.13;3.00;;;;;;;;;;5035815;28;20214;-68
2022/06/25 02:13:36;;;;;;;4.83;2.70;;;;;;;;;;5054116;28;20258;-67
2022/06/25 02:16:02;;;;;;;2.77;2.30;;;;;;;;;;5036101;28;20190;-67
2022/06/25 02:18:28;;;;;;;5.07;2.97;;;;;;;;;;5054334;28;20178;-67
2022/06/25 02:20:55;;;;;;;4.57;2.90;;;;;;;;;;5053762;28;20218;-67
2022/06/25 02:23:22;;;;;;;7.07;2.80;;;;;;;;;;5053896;28;20533;-65
2022/06/25 02:25:48;;;;;;;5.93;2.60;;;;;;;;;;5054042;28;20184;-69
2022/06/25 02:28:15;;;;;;;5.63;2.40;;;;;;;;;;5053969;28;20533;-67
2022/06/25 02:30:41;;;;;;;9.40;2.63;;;;;;;;;;5053705;28;20206;-67
2022/06/25 02:33:08;;;;;;;5.50;2.47;;;;;;;;;;5035868;28;20179;-67
2022/06/25 02:35:35;;;;;;;4.43;3.43;;;;;;;;;;5053826;28;20657;-69
2022/06/25 02:38:01;;;;;;;6.27;3.00;;;;;;;;;;5053398;28;20197;-67
2022/06/25 02:40:26;;;;;;;10.57;2.47;;;;;;;;;;5053569;28;20582;-67
2022/06/25 02:42:52;;;;;;;9.07;2.53;;;;;;;;;;5053903;28;20181;-67
2022/06/25 02:45:18;;;;;;;6.27;3.13;;;;;;;;;;5053879;28;20178;-66
2022/06/25 02:47:44;;;;;;;4.70;2.80;;;;;;;;;;5053897;28;20182;-67
2022/06/25 02:50:11;;;;;;;3.50;2.40;;;;;;;;;;5053382;28;20209;-67
2022/06/25 02:52:37;;;;;;;8.73;2.50;;;;;;;;;;5053451;28;20182;-65
2022/06/25 02:55:03;;;;;;;3.10;2.53;;;;;;;;;;5035540;28;20213;-67
2022/06/25 03:00:13;;;;;;;5.10;2.30;;;;;;;;;;5053503;28;20637;-67
2022/06/25 03:02:39;;;;;;;4.60;2.87;;;;;;;;;;5035720;28;20269;-67
2022/06/25 03:05:06;;;;;;;4.47;2.47;;;;;;;;;;5053352;28;20598;-68
2022/06/25 03:07:32;;;;;;;4.27;2.57;;;;;;;;;;5053380;28;20179;-67
2022/06/25 03:09:58;;;;;;;2.90;2.60;;;;;;;;;;5053374;28;20248;-67
2022/06/25 03:12:24;;;;;;;7.70;3.00;;;;;;;;;;5053026;28;20674;-67
2022/06/25 03:14:49;;;;;;;4.23;3.00;;;;;;;;;;5053070;28;20661;-66
2022/06/25 03:17:15;;;;;;;4.47;3.30;;;;;;;;;;5053982;28;20512;-67
2022/06/25 03:19:41;;;;;;;4.37;3.10;;;;;;;;;;5053250;28;20216;-67
2022/06/25 03:22:07;;;;;;;6.00;3.60;;;;;;;;;;5052854;28;20705;-67
2022/06/25 03:24:33;;;;;;;5.30;3.60;;;;;;;;;;5052818;28;20277;-67
2022/06/25 03:26:59;;;;;;;8.03;3.50;;;;;;;;;;5035395;28;20625;-66
2022/06/25 03:29:25;;;;;;;6.90;3.23;;;;;;;;;;5053395;28;20179;-69
2022/06/25 03:31:51;;;;;;;6.93;4.00;;;;;;;;;;5053377;28;20277;-66
2022/06/25 03:34:17;;;;;;;4.83;4.13;;;;;;;;;;5053107;28;20182;-66
2022/06/25 03:36:43;;;;;;;6.70;4.20;;;;;;;;;;5053946;28;20167;-69
2022/06/25 03:39:09;;;;;;;7.57;3.87;;;;;;;;;;5035434;28;20228;-67
2022/06/25 03:41:38;;;;;;;4.37;3.87;;;;;;;;;;5053615;28;20206;-68
2022/06/25 03:44:09;;;;;;;6.00;4.00;;;;;;;;;;5053820;28;20181;-69
2022/06/25 03:46:36;;;;;;;4.33;3.50;;;;;;;;;;5053646;28;20178;-69
2022/06/25 03:49:02;;;;;;;6.07;4.20;;;;;;;;;;5054218;28;20186;-67
2022/06/25 03:51:28;;;;;;;4.20;3.80;;;;;;;;;;5054052;28;20221;-67
2022/06/25 03:53:55;;;;;;;5.63;4.20;;;;;;;;;;5036299;28;20174;-67
2022/06/25 03:56:21;;;;;;;7.63;4.30;;;;;;;;;;5035095;28;20214;-67
2022/06/25 03:58:48;;;;;;;7.13;4.03;;;;;;;;;;5053782;28;20181;-67
2022/06/25 04:01:14;;;;;;;6.03;4.00;;;;;;;;;;5037480;28;20679;-66
2022/06/25 04:03:41;;;;;;;4.23;3.50;;;;;;;;;;5057084;28;20590;-67
2022/06/25 04:06:07;;;;;;;4.73;4.10;;;;;;;;;;5058307;28;20228;-68
2022/06/25 04:08:33;;;;;;;4.47;3.57;;;;;;;;;;5040110;28;20609;-67
2022/06/25 04:10:59;;;;;;;6.40;3.80;;;;;;;;;;5058006;28;20214;-67
2022/06/25 04:13:26;;;;;;;5.80;3.80;;;;;;;;;;5057422;28;20268;-68
2022/06/25 04:15:52;;;;;;;3.50;3.20;;;;;;;;;;5056780;28;20202;-68
2022/06/25 04:18:18;;;;;;;5.67;4.17;;;;;;;;;;5056640;28;20209;-68
2022/06/25 04:20:44;;;;;;;4.60;3.70;;;;;;;;;;5038332;28;20213;-67
2022/06/25 04:23:10;;;;;;;7.77;4.53;;;;;;;;;;5042988;23;20254;-67
2022/06/25 04:25:36;;;;;;;5.93;4.17;;;;;;;;;;5036021;28;20167;-67
2022/06/25 04:30:47;;;;;;;7.07;3.80;;;;;;;;;;5035807;28;20210;-68
2022/06/25 04:33:13;;;;;;;7.40;3.80;;;;;;;;;;5035613;28;20195;-67
2022/06/25 04:35:39;;;;;;;5.43;3.50;;;;;;;;;;5017824;28;20184;-67
2022/06/25 04:38:04;;;;;;;5.67;3.70;;;;;;;;;;5035991;28;20258;-67
2022/06/25 04:40:30;;;;;;;4.47;3.60;;;;;;;;;;5017871;28;20666;-67
2022/06/25 04:42:56;;;;;;;5.77;3.73;;;;;;;;;;5017689;28;20560;-67
2022/06/25 04:45:22;;;;;;;6.97;3.70;;;;;;;;;;5018056;28;20179;-67
2022/06/25 04:47:48;;;;;;;4.67;3.87;;;;;;;;;;5017753;28;20183;-67
2022/06/25 04:50:14;;;;;;;8.17;3.90;;;;;;;;;;5017554;28;20211;-67
2022/06/25 04:52:40;;;;;;;6.67;3.70;;;;;;;;;;5035311;28;20229;-67
2022/06/25 04:55:06;;;;;;;3.97;3.50;;;;;;;;;;5035208;28;20175;-68
2022/06/25 04:57:32;;;;;;;4.67;3.23;;;;;;;;;;5017423;28;20183;-68
2022/06/25 04:59:58;;;;;;;8.67;3.13;;;;;;;;;;5035326;28;20183;-67
2022/06/25 05:02:24;;;;;;;7.67;4.00;;;;;;;;;;5017229;28;20203;-67
2022/06/25 05:04:50;;;;;;;4.13;3.03;;;;;;;;;;5035033;28;20224;-67
2022/06/25 05:07:16;;;;;;;2.80;2.60;;;;;;;;;;5035213;28;20187;-68
2022/06/25 05:09:42;;;;;;;4.47;2.50;;;;;;;;;;5017059;28;20705;-68
2022/06/25 05:12:08;;;;;;;4.97;3.20;;;;;;;;;;5016024;28;20286;-68
2022/06/25 05:14:34;;;;;;;5.00;3.20;;;;;;;;;;5035043;28;20187;-68
2022/06/25 05:17:00;;;;;;;4.93;2.97;;;;;;;;;;5015754;28;20548;-68
2022/06/25 05:19:26;;;;;;;4.40;2.87;;;;;;;;;;5034717;28;20374;-67
2022/06/25 05:21:52;;;;;;;5.03;3.03;;;;;;;;;;5034610;28;20179;-67
2022/06/25 05:24:18;;;;;;;5.53;3.47;;;;;;;;;;5033351;28;20395;-67
2022/06/25 05:26:44;;;;;;;3.97;3.03;;;;;;;;;;5034782;28;20209;-68
2022/06/25 05:29:10;;;;;;;3.80;3.40;;;;;;;;;;5015608;28;20903;-67
2022/06/25 05:31:36;;;;;;;6.43;3.73;;;;;;;;;;5033425;28;20445;-67
2022/06/25 05:34:02;;;;;;;6.13;3.87;;;;;;;;;;5034375;28;20207;-67
2022/06/25 05:36:28;;;;;;;7.50;4.30;;;;;;;;;;5034912;28;20262;-68
2022/06/25 05:38:54;;;;;;;7.63;4.47;;;;;;;;;;5034447;28;20175;-67
2022/06/25 05:41:19;;;;;;;6.80;4.13;;;;;;;;;;5016477;28;20190;-68
2022/06/25 05:43:45;;;;;;;5.30;3.97;;;;;;;;;;5034178;28;20252;-67
2022/06/25 05:46:11;;;;;;;6.53;4.43;;;;;;;;;;5016440;28;20222;-67
2022/06/25 05:48:37;;;;;;;7.20;3.93;;;;;;;;;;5034201;28;20183;-66
2022/06/25 05:51:03;;;;;;;7.82;4.20;;;;;;;;;;5015201;28;20407;-68
2022/06/25 05:53:29;;;;;;;6.77;3.80;;;;;;;;;;5034303;28;20194;-67
2022/06/25 05:55:55;;;;;;;11.10;3.63;;;;;;;;;;5034051;28;20175;-68
2022/06/25 05:58:22;;;;;;;4.20;2.80;;;;;;;;;;5016361;28;20577;-67
2022/06/25 06:00:48;;;;;;;3.50;2.83;;;;;;;;;;5034161;28;20254;-67
2022/06/25 06:03:14;;;;;;;4.40;3.00;;;;;;;;;;5033830;28;20203;-67
2022/06/25 06:05:40;;;;;;;6.53;3.43;;;;;;;;;;5016029;28;20233;-68
2022/06/25 06:08:06;;;;;;;8.67;2.93;;;;;;;;;;5033828;28;20194;-68
2022/06/25 06:10:32;;;;;;;11.50;3.37;;;;;;;;;;5033975;28;20234;-67
2022/06/25 06:12:58;;;;;;;4.03;2.90;;;;;;;;;;5033651;28;20198;-68
2022/06/25 06:15:24;;;;;;;8.07;2.77;;;;;;;;;;5033685;28;20175;-67
2022/06/25 06:17:50;;;;;;;5.10;2.60;;;;;;;;;;5033779;28;20193;-68
2022/06/25 06:20:16;;;;;;;5.17;2.77;;;;;;;;;;5016058;28;20602;-68
2022/06/25 06:22:42;;;;;;;9.20;2.93;;;;;;;;;;5033698;28;20768;-68
2022/06/25 06:25:08;;;;;;;4.57;2.40;;;;;;;;;;5033991;28;20228;-67
2022/06/25 06:27:34;;;;;;;4.93;2.87;;;;;;;;;;5033569;28;20563;-68
2022/06/25 06:30:00;;;;;;;3.33;2.40;;;;;;;;;;5033425;28;20574;-68
2022/06/25 06:32:26;;;;;;;4.97;3.00;;;;;;;;;;5015876;28;20286;-67
2022/06/25 06:34:52;;;;;;;5.20;2.63;;;;;;;;;;5033559;28;20183;-68
2022/06/25 06:37:18;;;;;;;5.93;2.97;;;;;;;;;;5033604;28;20183;-68
2022/06/25 06:39:44;;;;;;;6.40;2.37;;;;;;;;;;5016109;28;20253;-67
2022/06/25 06:42:10;;;;;;;3.87;2.43;;;;;;;;;;5015806;28;20637;-69
2022/06/25 06:44:36;;;;;;;4.10;2.40;;;;;;;;;;5033481;28;20584;-68
2022/06/25 06:47:02;;;;;;;3.03;2.53;;;;;;;;;;5033659;28;20619;-68
2022/06/25 06:49:28;;;;;;;9.10;3.00;;;;;;;;;;5033456;28;20546;-68
2022/06/25 06:51:54;;;;;;;5.87;3.40;;;;;;;;;;5033326;28;20175;-67
2022/06/25 06:54:19;;;;;;;8.30;2.63;;;;;;;;;;5033315;28;20256;-69
2022/06/25 06:56:46;;;;;;;4.17;2.50;;;;;;;;;;5033345;28;20187;-68
2022/06/25 06:59:12;;;;;;;5.53;2.40;;;;;;;;;;5015434;28;20178;-67
2022/06/25 07:01:38;;;;;;;5.13;3.10;;;;;;;;;;5033051;28;20534;-68
2022/06/25 07:04:04;;;;;;;9.73;3.00;;;;;;;;;;5015424;28;20298;-68
2022/06/25 07:06:29;;;;;;;9.67;3.00;;;;;;;;;;5033674;28;20175;-68
2022/06/25 07:08:55;;;;;;;8.23;3.23;;;;;;;;;;5033503;28;20175;-68
2022/06/25 07:11:30;;;;;;;6.47;2.90;;;;;;;;;;5033250;28;20238;-68
2022/06/25 07:13:57;;;;;;;6.97;2.73;;;;;;;;;;5015509;28;20229;-68
2022/06/25 07:16:24;;;;;;;5.20;2.57;;;;;;;;;;5015663;28;20183;-68
2022/06/25 07:18:50;;;;;;;4.43;2.60;;;;;;;;;;5033709;28;20224;-68
2022/06/25 07:21:17;;;;;;;8.73;3.90;;;;;;;;;;5033379;28;20678;-68
2022/06/25 07:23:43;;;;;;;4.80;2.90;;;;;;;;;;5015397;28;20219;-69
2022/06/25 07:26:09;;;;;;;6.27;3.40;;;;;;;;;;5033945;28;20183;-68
2022/06/25 07:28:35;;;;;;;3.00;2.30;;;;;;;;;;5033511;28;20237;-69
2022/06/25 07:31:00;;;;;;;6.47;2.30;;;;;;;;;;5015361;28;20202;-68
2022/06/25 07:33:27;;;;;;;5.27;2.73;;;;;;;;;;5015274;28;20197;-68
2022/06/25 07:35:53;;;;;;;4.07;2.40;;;;;;;;;;5034508;28;20174;-68
2022/06/25 07:38:18;;;;;;;4.20;2.43;;;;;;;;;;5036759;28;20179;-69
2022/06/25 07:40:44;;;;;;;4.07;2.10;;;;;;;;;;5018924;28;20662;-68
2022/06/25 07:43:10;;;;;;;2.87;2.10;;;;;;;;;;5037176;28;20686;-68
2022/06/25 07:45:36;;;;;;;5.23;2.40;;;;;;;;;;5036697;28;20183;-68
2022/06/25 07:48:02;;;;;;;4.33;2.63;;;;;;;;;;5036753;28;20175;-68
2022/06/25 07:53:13;;;;;;;4.77;2.60;;;;;;;;;;5036662;28;20249;-69
2022/06/25 07:55:39;;;;;;;12.37;3.20;;;;;;;;;;5036368;28;20179;-68
2022/06/25 07:58:05;;;;;;;6.00;2.80;;;;;;;;;;5018624;28;20202;-68
2022/06/25 08:00:33;;;;;;;5.30;2.73;;;;;;;;;;5018839;28;20666;-68
2022/06/25 08:02:59;;;;;;;6.50;2.63;;;;;;;;;;5036506;28;20226;-68
2022/06/25 08:05:25;;;;;;;4.80;2.07;;;;;;;;;;5036238;28;20183;-68
2022/06/25 08:07:51;;;;;;;3.50;2.10;;;;;;;;;;5018406;28;20187;-68
2022/06/25 08:10:17;;;;;;;2.47;2.00;;;;;;;;;;5036123;28;20293;-68
2022/06/25 08:12:43;;;;;;;4.27;2.03;;;;;;;;;;5036006;28;20231;-68
2022/06/25 08:15:09;;;;;;;4.30;2.53;;;;;;;;;;5035937;28;20202;-68
2022/06/25 08:17:36;;;;;;;2.77;2.00;;;;;;;;;;5036004;28;20175;-68
2022/06/25 08:20:02;;;;;;;6.83;2.80;;;;;;;;;;5035938;28;20654;-69
2022/06/25 08:22:28;;;;;;;5.60;2.10;;;;;;;;;;5035701;28;20211;-68
2022/06/25 08:24:56;;;;;;;2.13;1.70;;;;;;;;;;5017913;28;20666;-68
2022/06/25 08:27:22;;;;;;;3.00;2.17;;;;;;;;;;5035676;28;20183;-68
2022/06/25 08:29:48;;;;;;;3.73;1.87;;;;;;;;;;5017981;28;20187;-68
2022/06/25 08:32:14;;;;;;;2.67;1.90;;;;;;;;;;5035615;28;20203;-68
2022/06/25 08:34:39;;;;;;;2.00;1.73;;;;;;;;;;5035756;28;20270;-67
2022/06/25 08:37:05;;;;;;;5.03;2.20;;;;;;;;;;5036306;28;20182;-68
2022/06/25 08:39:32;;;;;;;4.57;3.07;;;;;;;;;;5035689;28;20173;-68
2022/06/25 08:42:00;;;;;;;4.93;3.23;;;;;;;;;;5035816;28;20175;-68
2022/06/25 08:44:26;;;;;;;5.77;2.07;;;;;;;;;;5035333;28;20266;-68
2022/06/25 08:46:52;;;;;;;2.80;2.13;;;;;;;;;;5017305;28;20266;-68
2022/06/25 08:49:19;;;;;;;4.50;1.90;;;;;;;;;;5035391;28;20171;-68
2022/06/25 08:51:46;;;;;;;5.90;2.13;;;;;;;;;;5017416;28;20250;-68
2022/06/25 08:54:12;;;;;;;3.63;2.10;;;;;;;;;;5035676;28;20179;-68
2022/06/25 08:56:38;;;;;;;2.23;1.80;;;;;;;;;;5017384;28;20186;-68
2022/06/25 08:59:04;;;;;;;1.50;1.40;;;;;;;;;;5034973;28;20179;-68
2022/06/25 09:01:30;;;;;;;1.97;1.40;;;;;;;;;;5017273;28;20195;-69
2022/06/25 09:03:56;;;;;;;1.57;1.40;;;;;;;;;;5017203;28;20210;-68
2022/06/25 09:06:22;;;;;;;3.13;1.60;;;;;;;;;;5017280;28;20188;-68
2022/06/25 09:09:11;;;;;;;3.07;1.63;;;;;;;;;;5035327;28;20519;-68
2022/06/25 09:11:53;;;;;;;2.97;1.67;;;;;;;;;;5034940;28;20223;-68
2022/06/25 09:14:28;;;;;;;4.27;1.70;;;;;;;;;;5034682;28;20226;-68
2022/06/25 09:16:55;;;;;;;1.80;1.37;;;;;;;;;;5016961;28;20269;-68
2022/06/25 09:19:27;;;;;;;2.93;1.23;;;;;;;;;;5034494;28;20172;-68
2022/06/25 09:21:53;;;;;;;2.93;1.77;;;;;;;;;;5034588;28;20174;-68
2022/06/25 09:24:19;;;;;;;3.50;1.50;;;;;;;;;;5034493;28;20647;-68
2022/06/25 09:26:52;;;;;;;1.83;1.50;;;;;;;;;;5016835;28;20187;-68
2022/06/25 09:29:18;;;;;;;1.57;1.27;;;;;;;;;;5016806;28;20662;-68
2022/06/25 09:31:44;;;;;;;1.80;1.30;;;;;;;;;;5034440;28;20645;-70
2022/06/25 09:34:10;;;;;;;1.77;1.67;;;;;;;;;;5016573;28;20199;-70
2022/06/25 09:36:36;;;;;;;1.90;1.50;;;;;;;;;;5016696;28;20254;-69
2022/06/25 09:39:03;;;;;;;1.70;1.40;;;;;;;;;;5034380;28;20182;-69
2022/06/25 09:41:49;;;;;;;1.27;1.17;;;;;;;;;;5034279;28;20245;-69
2022/06/25 09:44:16;;;;;;;2.27;1.70;;;;;;;;;;5016560;28;20179;-69
2022/06/25 09:46:57;;;;;;;2.80;1.43;;;;;;;;;;5034181;28;20175;-70
2022/06/25 09:49:24;;;;;;;8.63;1.73;;;;;;;;;;5016624;28;20313;-68
2022/06/25 09:52:00;;;;;;;1.50;1.40;;;;;;;;;;5016327;28;20294;-67
2022/06/25 09:54:26;;;;;;;2.23;1.30;;;;;;;;;;5034197;28;20179;-67
2022/06/25 09:56:54;;;;;;;2.37;1.73;;;;;;;;;;5034303;28;20201;-69
2022/06/25 09:59:21;;;;;;;1.53;1.40;;;;;;;;;;5033767;28;20175;-68
2022/06/25 10:01:47;;;;;;;1.53;1.40;;;;;;;;;;5016350;28;20183;-68
2022/06/25 10:04:13;;;;;;;2.77;1.53;;;;;;;;;;5034313;28;20548;-68
2022/06/25 10:06:40;;;;;;;1.83;1.50;;;;;;;;;;5034576;28;20175;-67
2022/06/25 10:09:07;;;;;;;1.70;1.57;;;;;;;;;;5016242;28;20183;-68
2022/06/25 10:11:34;;;;;;;1.53;1.43;;;;;;;;;;5016211;28;20598;-68
2022/06/25 10:14:01;;;;;;;2.03;1.30;;;;;;;;;;5016330;28;20202;-67
2022/06/25 10:16:29;;;;;;;2.50;1.50;;;;;;;;;;5033909;28;20179;-68
2022/06/25 10:18:55;;;;;;;4.03;1.87;;;;;;;;;;5034663;28;20182;-68
2022/06/25 10:21:22;;;;;;;2.83;1.50;;;;;;;;;;5033549;28;20536;-68
2022/06/25 10:23:50;;;;;;;2.60;1.90;;;;;;;;;;5015778;28;20221;-68
2022/06/25 10:26:16;;;;;;;1.60;1.50;;;;;;;;;;5033549;28;20179;-69
2022/06/25 10:28:43;;;;;;;1.87;1.33;;;;;;;;;;5033511;28;20179;-69
2022/06/25 10:31:14;;;;;;;3.47;1.50;;;;;;;;;;5015712;28;20218;-68
2022/06/25 10:34:00;;;;;;;3.70;1.90;;;;;;;;;;5033305;28;20404;-68
2022/06/25 10:36:46;;;;;;;2.17;1.60;;;;;;;;;;5033541;28;20206;-68
2022/06/25 10:39:27;;;;;;;4.00;2.00;;;;;;;;;;5033322;28;20655;-67
2022/06/25 10:45:04;;;;;;;1.53;1.33;;;;;;;;;;5033653;28;20650;-68
2022/06/25 10:47:40;;;;;;;2.47;1.40;;;;;;;;;;5034802;28;20179;-68
2022/06/25 10:50:22;;;;;;;1.40;1.30;;;;;;;;;;5015725;28;20210;-68
2022/06/25 10:53:03;;;;;;;3.17;1.50;;;;;;;;;;5033319;28;20195;-67
2022/06/25 10:55:29;;;;;;;2.37;1.70;;;;;;;;;;5015634;28;20179;-68
2022/06/25 10:58:14;;;;;;;3.43;1.40;;;;;;;;;;5033201;28;20187;-69
2022/06/25 11:00:53;;;;;;;2.53;1.70;;;;;;;;;;5015367;28;20191;-68
2022/06/25 11:03:29;;;;;;;2.80;1.53;;;;;;;;;;5033139;28;20315;-68
2022/06/25 11:05:59;;;;;;;3.53;1.83;;;;;;;;;;5015537;28;20186;-69
2022/06/25 11:08:34;;;;;;;3.87;1.90;;;;;;;;;;5033138;28;20175;-67
2022/06/25 11:11:00;;;;;;;2.07;1.73;;;;;;;;;;5018726;28;20206;-67
2022/06/25 11:13:27;;;;;;;2.97;1.77;;;;;;;;;;5019285;28;20670;-68
2022/06/25 11:15:53;;;;;;;2.47;1.50;;;;;;;;;;5037230;28;20167;-68
2022/06/25 11:18:19;;;;;;;4.67;1.90;;;;;;;;;;5019287;28;20179;-68
2022/06/25 11:20:46;;;;;;;2.87;1.70;;;;;;;;;;5037060;28;20266;-68
2022/06/25 11:23:15;;;;;;;2.83;1.23;;;;;;;;;;5037059;28;20225;-67
2022/06/25 11:28:52;;;;;;;3.47;1.57;;;;;;;;;;5036936;28;20309;-66
2022/06/25 11:31:22;;;;;;;5.10;1.87;;;;;;;;;;5036803;28;20213;-68
2022/06/25 11:33:49;;;;;;;3.23;1.87;;;;;;;;;;5037094;28;20545;-67
2022/06/25 11:36:16;;;;;;;3.50;2.03;;;;;;;;;;5019005;28;20178;-68
2022/06/25 11:38:43;;;;;;;2.73;1.67;;;;;;;;;;5036835;28;20175;-68
2022/06/25 11:41:38;;;;;;;2.93;2.00;;;;;;;;;;5018798;28;20769;-68
2022/06/25 11:44:05;;;;;;;6.40;2.53;;;;;;;;;;5019884;28;20290;-67
2022/06/25 11:46:33;;;;;;;5.23;1.77;;;;;;;;;;5018864;28;20211;-67
2022/06/25 11:48:59;;;;;;;3.00;1.90;;;;;;;;;;5036599;28;20217;-67
2022/06/25 11:51:26;;;;;;;2.17;1.87;;;;;;;;;;5036687;28;20210;-67
2022/06/25 11:53:52;;;;;;;3.37;1.97;;;;;;;;;;5018569;28;20199;-68
2022/06/25 11:56:18;;;;;;;2.77;2.03;;;;;;;;;;5036497;28;20261;-69
2022/06/25 11:58:45;;;;;;;3.57;1.93;;;;;;;;;;5036571;28;20229;-67
2022/06/25 12:01:11;;;;;;;3.07;1.90;;;;;;;;;;5036312;28;20261;-68
2022/06/25 12:03:37;;;;;;;4.10;2.60;;;;;;;;;;5036679;28;20210;-67
2022/06/25 12:06:04;;;;;;;2.50;1.87;;;;;;;;;;5036435;28;20186;-68
2022/06/25 12:08:30;;;;;;;4.03;2.60;;;;;;;;;;5036531;28;20523;-68
2022/06/25 12:11:00;;;;;;;3.50;2.27;;;;;;;;;;5036182;28;20321;-67
2022/06/25 12:13:27;;;;;;;6.17;3.13;;;;;;;;;;5018097;28;20195;-67
2022/06/25 12:16:05;;;;;;;6.20;3.97;;;;;;;;;;5036052;28;20171;-67
2022/06/25 12:18:35;;;;;;;10.20;3.90;;;;;;;;;;5036428;28;20221;-68
2022/06/25 12:21:01;;;;;;;3.53;2.60;;;;;;;;;;5035329;28;20241;-68
2022/06/25 12:23:27;;;;;;;5.60;2.50;;;;;;;;;;5017979;28;20686;-68
2022/06/25 12:25:53;;;;;;;3.03;2.60;;;;;;;;;;5018031;28;20244;-67
2022/06/25 12:28:39;;;;;;;4.83;2.33;;;;;;;;;;5018208;28;20675;-67
2022/06/25 12:31:08;;;;;;;5.47;2.60;;;;;;;;;;5035831;28;20225;-67
2022/06/25 12:33:34;;;;;;;5.83;2.30;;;;;;;;;;5035706;28;20191;-67
2022/06/25 12:36:00;;;;;;;3.57;1.93;;;;;;;;;;5035507;28;20186;-68
2022/06/25 12:38:26;;;;;;;6.57;3.10;;;;;;;;;;5035596;28;20179;-68
2022/06/25 12:40:52;;;;;;;4.17;2.70;;;;;;;;;;5035569;28;20241;-67
2022/06/25 12:43:18;;;;;;;4.10;2.60;;;;;;;;;;5035881;28;20606;-68
2022/06/25 12:45:45;;;;;;;5.47;2.90;;;;;;;;;;5017275;28;20186;-67
2022/06/25 12:48:11;;;;;;;3.83;2.30;;;;;;;;;;5017554;28;20175;-67
2022/06/25 12:50:38;;;;;;;3.10;2.00;;;;;;;;;;5036021;28;20655;-67
2022/06/25 12:53:07;;;;;;;6.90;2.43;;;;;;;;;;5035488;28;20199;-68
2022/06/25 12:55:33;;;;;;;3.97;2.30;;;;;;;;;;5035279;28;20171;-68
2022/06/25 12:58:04;;;;;;;7.90;2.30;;;;;;;;;;5035189;28;20182;-67
2022/06/25 13:00:30;;;;;;;3.50;2.47;;;;;;;;;;5034983;28;20289;-67
2022/06/25 13:02:56;;;;;;;5.70;2.37;;;;;;;;;;5035232;28;20196;-68
2022/06/25 13:05:22;;;;;;;2.53;2.20;;;;;;;;;;5016932;28;20648;-67
2022/06/25 13:07:48;;;;;;;5.40;3.13;;;;;;;;;;5016906;28;20552;-67
2022/06/25 13:10:15;;;;;;;2.23;2.00;;;;;;;;;;5034670;28;20199;-67
2022/06/25 13:12:42;;;;;;;3.67;2.00;;;;;;;;;;5035265;28;20195;-67
2022/06/25 13:15:08;;;;;;;2.33;1.90;;;;;;;;;;5016919;28;20207;-67
2022/06/25 13:17:35;;;;;;;1.97;1.83;;;;;;;;;;5034662;28;20593;-68
2022/06/25 13:20:01;;;;;;;3.47;2.53;;;;;;;;;;5035119;28;20697;-68
2022/06/25 13:22:27;;;;;;;4.43;2.17;;;;;;;;;;5034838;28;20214;-68
2022/06/25 13:24:54;;;;;;;1.90;1.80;;;;;;;;;;5017026;28;20525;-68
2022/06/25 13:27:20;;;;;;;3.20;1.97;;;;;;;;;;5034829;28;20269;-67
2022/06/25 13:29:46;;;;;;;1.90;1.70;;;;;;;;;;5034456;28;20218;-70
2022/06/25 13:32:16;;;;;;;3.23;1.80;;;;;;;;;;5034289;28;20249;-68
2022/06/25 13:34:43;;;;;;;3.40;1.90;;;;;;;;;;5034036;28;20159;-67
2022/06/25 13:37:09;;;;;;;2.47;1.92;;;;;;;;;;5034586;28;20210;-67
2022/06/25 13:39:34;;;;;;;2.33;1.90;;;;;;;;;;5034196;28;20536;-68
2022/06/25 13:42:00;;;;;;;3.03;1.70;;;;;;;;;;5034214;28;20179;-68
2022/06/25 13:44:26;;;;;;;5.07;2.43;;;;;;;;;;5034604;28;20651;-69
2022/06/25 13:46:52;;;;;;;3.33;2.90;;;;;;;;;;5034260;28;20175;-67
2022/06/25 13:49:18;;;;;;;2.23;2.07;;;;;;;;;;5034166;28;20190;-67
2022/06/25 13:51:46;;;;;;;2.42;2.20;;;;;;;;;;5034336;28;20249;-67
2022/06/25 13:54:12;;;;;;;9.10;2.30;;;;;;;;;;5033984;28;20282;-67
2022/06/25 13:56:38;;;;;;;4.00;2.60;;;;;;;;;;5016347;28;20222;-67
2022/06/25 13:59:04;;;;;;;2.80;1.80;;;;;;;;;;5034321;28;20184;-67
2022/06/25 14:01:30;;;;;;;3.17;2.20;;;;;;;;;;5034048;28;20178;-67
2022/06/25 14:03:56;;;;;;;2.70;1.87;;;;;;;;;;5033948;28;20203;-68
2022/06/25 14:06:22;;;;;;;3.10;2.03;;;;;;;;;;5016323;28;20190;-68
2022/06/25 14:08:48;;;;;;;3.13;1.97;;;;;;;;;;5033914;28;20186;-67
2022/06/25 14:11:14;;;;;;;3.47;1.90;;;;;;;;;;5016223;28;20260;-67
2022/06/25 14:13:41;;;;;;;2.73;2.13;;;;;;;;;;5033806;28;20190;-67
2022/06/25 14:16:07;;;;;;;4.80;2.20;;;;;;;;;;5016146;28;20658;-67
2022/06/25 14:18:33;;;;;;;2.27;1.90;;;;;;;;;;5034056;28;20172;-67
2022/06/25 14:21:01;;;;;;;3.40;1.97;;;;;;;;;;5033508;28;20187;-67
2022/06/25 14:23:27;;;;;;;2.80;1.80;;;;;;;;;;5033457;28;20671;-67
2022/06/25 14:25:53;;;;;;;2.03;1.73;;;;;;;;;;5015881;28;20182;-67
2022/06/25 14:28:19;;;;;;;3.90;2.00;;;;;;;;;;5033726;28;20624;-67
2022/06/25 14:30:45;;;;;;;7.40;1.90;;;;;;;;;;5033844;28;20729;-67
2022/06/25 14:33:12;;;;;;;2.83;2.20;;;;;;;;;;5033966;28;20678;-67
2022/06/25 14:35:38;;;;;;;5.40;2.30;;;;;;;;;;5015703;28;20290;-67
2022/06/25 14:43:33;;;;;;;2.40;1.60;;;;;;;;;;5033890;28;20237;-67
2022/06/25 14:45:59;;;;;;;3.50;1.90;;;;;;;;;;5033450;28;20557;-67
2022/06/25 14:48:25;;;;;;;2.07;1.93;;;;;;;;;;5033421;28;20209;-67
2022/06/25 14:50:51;;;;;;;2.88;1.90;;;;;;;;;;5015591;28;20214;-67
2022/06/25 14:53:17;;;;;;;2.20;2.00;;;;;;;;;;5015400;28;20203;-68
2022/06/25 14:55:43;;;;;;;6.80;2.33;;;;;;;;;;5015376;28;20194;-67
2022/06/25 14:58:09;;;;;;;5.30;2.60;;;;;;;;;;5033512;28;20313;-67
2022/06/25 15:00:35;;;;;;;4.63;2.58;;;;;;;;;;5015276;28;20187;-67
2022/06/25 15:03:01;;;;;;;3.23;2.37;;;;;;;;;;5033127;28;20206;-68
2022/06/25 15:05:28;;;;;;;3.20;2.83;;;;;;;;;;5033145;28;20175;-68